createdAt,value
2018-08-13T00:00:06.423Z,5.70
2018-08-13T00:00:41.414Z,6.00
2018-08-13T00:01:15.645Z,2.62
2018-08-13T00:01:50.019Z,2.92
2018-08-13T00:02:24.530Z,5.30
2018-08-13T00:02:58.912Z,2.47
2018-08-13T00:03:32.484Z,4.47
2018-08-13T00:04:06.057Z,3.12
2018-08-13T00:04:39.636Z,4.17
2018-08-13T00:05:13.172Z,3.25
2018-08-13T00:05:47.332Z,5.10
2018-08-13T00:06:20.902Z,4.10
2018-08-13T00:06:54.558Z,4.85
2018-08-13T00:07:28.791Z,3.15
2018-08-13T00:08:03.404Z,2.65
2018-08-13T00:08:38.437Z,3.50
2018-08-13T00:09:12.279Z,2.17
2018-08-13T00:09:46.163Z,4.33
2018-08-13T00:10:19.772Z,4.92
2018-08-13T00:10:53.388Z,4.70
2018-08-13T00:11:27.446Z,2.52
2018-08-13T00:12:01.052Z,3.70
2018-08-13T00:12:34.784Z,3.52
2018-08-13T00:13:08.991Z,5.55
2018-08-13T00:13:43.388Z,3.77
2018-08-13T00:14:17.802Z,4.80
2018-08-13T00:14:51.385Z,3.25
2018-08-13T00:15:25.667Z,5.97
2018-08-13T00:15:59.209Z,3.55
2018-08-13T00:16:32.840Z,2.62
2018-08-13T00:17:07.305Z,3.20
2018-08-13T00:17:41.250Z,4.33
2018-08-13T00:18:16.364Z,5.33
2018-08-13T00:18:50.612Z,2.98
2018-08-13T00:19:24.244Z,4.62
2018-08-13T00:19:57.873Z,3.05
2018-08-13T00:20:32.057Z,7.47
2018-08-13T00:21:05.637Z,3.35
2018-08-13T00:21:39.301Z,3.35
2018-08-13T00:22:12.867Z,3.05
2018-08-13T00:22:46.480Z,2.90
2018-08-13T00:23:20.152Z,3.30
2018-08-13T00:23:53.739Z,4.97
2018-08-13T00:24:27.380Z,4.67
2018-08-13T00:25:00.957Z,2.83
2018-08-13T00:25:35.144Z,4.55
2018-08-13T00:26:08.799Z,5.70
2018-08-13T00:26:42.417Z,3.70
2018-08-13T00:27:16.033Z,3.10
2018-08-13T00:27:49.631Z,4.20
2018-08-13T00:28:23.312Z,3.80
2018-08-13T00:28:57.036Z,3.85
2018-08-13T00:29:30.646Z,5.33
2018-08-13T00:30:05.533Z,3.33
2018-08-13T00:30:39.607Z,4.15
2018-08-13T00:31:13.220Z,3.55
2018-08-13T00:31:46.784Z,2.87
2018-08-13T00:32:20.439Z,4.10
2018-08-13T00:32:54.692Z,2.15
2018-08-13T00:33:28.895Z,4.30
2018-08-13T00:34:02.517Z,3.37
2018-08-13T00:34:36.175Z,3.72
2018-08-13T00:35:10.198Z,4.25
2018-08-13T00:35:43.782Z,5.15
2018-08-13T00:36:17.425Z,2.47
2018-08-13T00:36:51.104Z,2.92
2018-08-13T00:37:24.788Z,3.90
2018-08-13T00:37:58.339Z,3.65
2018-08-13T00:38:32.000Z,2.90
2018-08-13T00:39:08.641Z,2.90
2018-08-13T00:39:42.233Z,3.80
2018-08-13T00:40:15.799Z,4.37
2018-08-13T00:40:50.021Z,9.08
2018-08-13T00:41:23.658Z,4.30
2018-08-13T00:41:57.226Z,3.52
2018-08-13T00:42:30.898Z,3.52
2018-08-13T00:43:05.008Z,4.80
2018-08-13T00:43:38.619Z,3.62
2018-08-13T00:44:13.073Z,3.42
2018-08-13T00:44:47.372Z,3.67
2018-08-13T00:45:20.927Z,3.87
2018-08-13T00:45:54.553Z,3.08
2018-08-13T00:46:29.080Z,3.17
2018-08-13T00:47:02.677Z,2.67
2018-08-13T00:47:36.280Z,3.50
2018-08-13T00:48:09.951Z,3.30
2018-08-13T00:48:43.572Z,4.92
2018-08-13T00:49:17.960Z,4.90
2018-08-13T00:49:51.563Z,5.65
2018-08-13T00:50:25.167Z,4.28
2018-08-13T00:50:58.815Z,3.72
2018-08-13T00:51:33.368Z,4.03
2018-08-13T00:52:07.636Z,4.80
2018-08-13T00:52:42.115Z,5.17
2018-08-13T00:53:15.766Z,5.62
2018-08-13T00:53:50.194Z,4.40
2018-08-13T00:54:23.721Z,3.75
2018-08-13T00:54:57.341Z,4.03
2018-08-13T00:55:32.836Z,2.65
2018-08-13T00:56:06.755Z,3.67
2018-08-13T00:56:40.318Z,4.53
2018-08-13T00:57:13.890Z,4.67
2018-08-13T00:57:47.482Z,3.67
2018-08-13T00:58:22.329Z,4.87
2018-08-13T00:58:55.948Z,2.77
2018-08-13T00:59:30.286Z,5.10
2018-08-13T01:00:04.779Z,3.33
2018-08-13T01:00:39.210Z,3.77
2018-08-13T01:01:14.114Z,4.15
2018-08-13T01:01:47.722Z,4.62
2018-08-13T01:02:21.223Z,4.65
2018-08-13T01:02:55.403Z,5.22
2018-08-13T01:03:30.113Z,3.75
2018-08-13T01:04:03.749Z,3.55
2018-08-13T01:04:37.395Z,4.72
2018-08-13T01:05:12.367Z,3.40
2018-08-13T01:05:45.963Z,3.08
2018-08-13T01:06:19.503Z,3.40
2018-08-13T01:06:53.116Z,2.83
2018-08-13T01:07:26.759Z,4.37
2018-08-13T01:08:00.417Z,2.77
2018-08-13T01:08:35.419Z,2.92
2018-08-13T01:09:10.119Z,3.08
2018-08-13T01:09:43.652Z,3.60
2018-08-13T01:10:20.278Z,4.30
2018-08-13T01:10:53.888Z,2.90
2018-08-13T01:11:28.499Z,3.42
2018-08-13T01:12:02.264Z,3.70
2018-08-13T01:12:35.876Z,5.67
2018-08-13T01:13:09.571Z,2.45
2018-08-13T01:13:43.228Z,3.42
2018-08-13T01:14:17.020Z,3.08
2018-08-13T01:14:50.627Z,4.62
2018-08-13T01:15:24.869Z,3.12
2018-08-13T01:15:58.598Z,4.45
2018-08-13T01:16:32.241Z,2.87
2018-08-13T01:17:05.836Z,3.77
2018-08-13T01:17:41.292Z,2.20
2018-08-13T01:18:14.980Z,3.08
2018-08-13T01:18:48.552Z,4.03
2018-08-13T01:19:22.202Z,3.02
2018-08-13T01:19:55.761Z,3.58
2018-08-13T01:20:31.164Z,2.75
2018-08-13T01:21:04.798Z,3.45
2018-08-13T01:21:38.393Z,4.87
2018-08-13T01:22:11.988Z,2.27
2018-08-13T01:22:45.619Z,3.40
2018-08-13T01:23:20.512Z,3.60
2018-08-13T01:23:54.128Z,3.35
2018-08-13T01:24:27.715Z,3.85
2018-08-13T01:25:02.228Z,3.67
2018-08-13T01:25:36.630Z,3.55
2018-08-13T01:26:10.192Z,2.75
2018-08-13T01:26:44.791Z,3.22
2018-08-13T01:27:23.629Z,2.40
2018-08-13T01:27:57.229Z,4.15
2018-08-13T01:28:31.596Z,2.75
2018-08-13T01:29:06.601Z,4.08
2018-08-13T01:29:40.279Z,2.65
2018-08-13T01:30:15.832Z,1.95
2018-08-13T01:30:49.560Z,2.90
2018-08-13T01:31:23.945Z,3.10
2018-08-13T01:31:57.568Z,2.65
2018-08-13T01:32:31.585Z,2.33
2018-08-13T01:33:05.614Z,2.85
2018-08-13T01:33:39.180Z,4.40
2018-08-13T01:34:12.729Z,2.10
2018-08-13T01:34:46.461Z,5.65
2018-08-13T01:35:20.988Z,3.45
2018-08-13T01:35:55.123Z,2.47
2018-08-13T01:36:28.775Z,3.37
2018-08-13T01:37:02.830Z,3.22
2018-08-13T01:37:36.456Z,3.12
2018-08-13T01:38:10.042Z,3.35
2018-08-13T01:38:43.632Z,2.47
2018-08-13T01:39:17.214Z,2.90
2018-08-13T01:39:50.769Z,5.05
2018-08-13T01:40:24.365Z,5.45
2018-08-13T01:40:58.175Z,4.05
2018-08-13T01:41:31.980Z,3.12
2018-08-13T01:42:05.684Z,3.60
2018-08-13T01:42:39.328Z,4.10
2018-08-13T01:43:13.471Z,3.52
2018-08-13T01:43:47.048Z,3.12
2018-08-13T01:44:20.626Z,3.70
2018-08-13T01:44:54.713Z,2.90
2018-08-13T01:45:29.267Z,4.33
2018-08-13T01:46:03.507Z,4.70
2018-08-13T01:46:37.823Z,4.40
2018-08-13T01:47:11.472Z,3.52
2018-08-13T01:47:45.036Z,2.77
2018-08-13T01:48:19.172Z,4.78
2018-08-13T01:48:52.754Z,2.70
2018-08-13T01:49:26.298Z,3.15
2018-08-13T01:50:00.568Z,4.50
2018-08-13T01:50:34.103Z,3.40
2018-08-13T01:51:07.810Z,3.58
2018-08-13T01:51:41.465Z,2.87
2018-08-13T01:52:15.529Z,3.90
2018-08-13T01:52:49.855Z,4.53
2018-08-13T01:53:23.919Z,4.70
2018-08-13T01:53:57.546Z,3.15
2018-08-13T01:54:31.150Z,3.95
2018-08-13T01:55:05.811Z,3.37
2018-08-13T01:55:39.804Z,2.98
2018-08-13T01:56:14.073Z,4.20
2018-08-13T01:56:48.191Z,4.50
2018-08-13T01:57:21.794Z,3.92
2018-08-13T01:57:55.438Z,3.83
2018-08-13T01:58:29.084Z,4.42
2018-08-13T01:59:02.687Z,3.90
2018-08-13T01:59:36.342Z,3.85
2018-08-13T02:00:14.198Z,5.83
2018-08-13T02:00:47.841Z,9.05
2018-08-13T02:01:21.488Z,3.72
2018-08-13T02:01:55.323Z,6.75
2018-08-13T02:02:29.148Z,4.75
2018-08-13T02:03:03.468Z,5.30
2018-08-13T02:03:37.708Z,4.03
2018-08-13T02:04:11.323Z,3.33
2018-08-13T02:04:45.582Z,3.35
2018-08-13T02:05:20.025Z,4.85
2018-08-13T02:05:53.678Z,5.72
2018-08-13T02:06:27.311Z,5.37
2018-08-13T02:07:01.847Z,2.87
2018-08-13T02:07:35.700Z,4.70
2018-08-13T02:08:09.279Z,2.72
2018-08-13T02:08:44.129Z,4.15
2018-08-13T02:09:18.059Z,4.37
2018-08-13T02:09:51.664Z,3.87
2018-08-13T02:10:25.228Z,3.62
2018-08-13T02:10:59.629Z,3.60
2018-08-13T02:11:35.144Z,2.83
2018-08-13T02:12:09.824Z,3.35
2018-08-13T02:12:43.953Z,3.35
2018-08-13T02:13:18.447Z,4.95
2018-08-13T02:13:52.072Z,3.40
2018-08-13T02:14:25.687Z,3.42
2018-08-13T02:14:59.665Z,3.22
2018-08-13T02:15:34.271Z,3.65
2018-08-13T02:16:08.156Z,4.15
2018-08-13T02:16:41.804Z,3.77
2018-08-13T02:17:16.218Z,4.50
2018-08-13T02:17:51.256Z,5.42
2018-08-13T02:18:25.584Z,2.90
2018-08-13T02:19:00.756Z,2.67
2018-08-13T02:19:35.173Z,3.40
2018-08-13T02:20:09.920Z,3.42
2018-08-13T02:20:43.615Z,3.25
2018-08-13T02:21:17.910Z,2.22
2018-08-13T02:21:51.568Z,3.67
2018-08-13T02:22:25.250Z,5.25
2018-08-13T02:22:58.843Z,2.95
2018-08-13T02:23:32.686Z,3.42
2018-08-13T02:24:06.405Z,3.08
2018-08-13T02:24:39.996Z,3.90
2018-08-13T02:25:13.714Z,3.00
2018-08-13T02:25:48.658Z,6.28
2018-08-13T02:26:22.911Z,2.52
2018-08-13T02:26:57.132Z,2.98
2018-08-13T02:27:31.471Z,2.70
2018-08-13T02:28:05.169Z,2.83
2018-08-13T02:28:38.782Z,2.95
2018-08-13T02:29:12.499Z,4.62
2018-08-13T02:29:46.828Z,6.60
2018-08-13T02:30:20.439Z,3.92
2018-08-13T02:30:54.137Z,2.65
2018-08-13T02:31:27.737Z,5.45
2018-08-13T02:32:01.598Z,4.25
2018-08-13T02:32:36.076Z,4.70
2018-08-13T02:33:09.751Z,2.98
2018-08-13T02:33:43.883Z,4.50
2018-08-13T02:34:18.558Z,6.20
2018-08-13T02:34:52.276Z,6.12
2018-08-13T02:35:25.934Z,3.27
2018-08-13T02:35:59.603Z,4.25
2018-08-13T02:36:33.653Z,3.42
2018-08-13T02:37:08.500Z,3.85
2018-08-13T02:37:42.653Z,5.28
2018-08-13T02:38:16.767Z,2.70
2018-08-13T02:38:50.363Z,5.75
2018-08-13T02:39:24.027Z,2.92
2018-08-13T02:39:57.616Z,4.42
2018-08-13T02:40:31.293Z,2.75
2018-08-13T02:41:04.907Z,2.45
2018-08-13T02:41:38.809Z,2.90
2018-08-13T02:42:12.447Z,2.40
2018-08-13T02:42:46.066Z,3.25
2018-08-13T02:43:20.266Z,1.98
2018-08-13T02:43:53.956Z,3.27
2018-08-13T02:44:27.579Z,2.58
2018-08-13T02:45:01.171Z,3.95
2018-08-13T02:45:35.063Z,2.62
2018-08-13T02:46:10.905Z,2.70
2018-08-13T02:46:45.085Z,2.77
2018-08-13T02:47:18.715Z,2.77
2018-08-13T02:47:52.279Z,2.00
2018-08-13T02:48:25.870Z,2.55
2018-08-13T02:48:59.571Z,2.37
2018-08-13T02:49:33.142Z,3.10
2018-08-13T02:50:08.692Z,4.45
2018-08-13T02:50:42.409Z,2.52
2018-08-13T02:51:15.984Z,2.60
2018-08-13T02:51:50.204Z,4.53
2018-08-13T02:52:24.452Z,2.12
2018-08-13T02:52:58.062Z,3.25
2018-08-13T02:53:32.196Z,5.28
2018-08-13T02:54:06.674Z,2.62
2018-08-13T02:54:40.289Z,2.50
2018-08-13T02:55:14.012Z,3.30
2018-08-13T02:55:47.592Z,2.98
2018-08-13T02:56:22.073Z,5.05
2018-08-13T02:56:56.589Z,2.40
2018-08-13T02:57:30.160Z,2.17
2018-08-13T02:58:04.095Z,1.92
2018-08-13T02:58:38.904Z,3.17
2018-08-13T02:59:12.535Z,1.98
2018-08-13T02:59:46.103Z,2.15
2018-08-13T03:00:19.743Z,1.80
2018-08-13T03:00:53.380Z,2.50
2018-08-13T03:01:27.339Z,2.45
2018-08-13T03:02:01.529Z,4.78
2018-08-13T03:02:35.141Z,2.72
2018-08-13T03:03:09.268Z,2.65
2018-08-13T03:03:42.917Z,3.62
2018-08-13T03:04:16.538Z,1.75
2018-08-13T03:05:29.421Z,2.35
2018-08-13T03:06:03.064Z,2.90
2018-08-13T03:06:36.780Z,3.42
2018-08-13T03:07:10.473Z,2.65
2018-08-13T03:07:44.812Z,2.72
2018-08-13T03:08:18.405Z,2.33
2018-08-13T03:08:52.388Z,3.67
2018-08-13T03:09:25.974Z,3.60
2018-08-13T03:09:59.588Z,4.20
2018-08-13T03:10:33.175Z,2.20
2018-08-13T03:11:07.279Z,2.67
2018-08-13T03:11:41.612Z,2.00
2018-08-13T03:12:15.858Z,3.62
2018-08-13T03:12:50.037Z,2.58
2018-08-13T03:13:23.620Z,4.62
2018-08-13T03:13:59.313Z,2.12
2018-08-13T03:14:34.297Z,5.33
2018-08-13T03:15:11.190Z,4.10
2018-08-13T03:15:44.805Z,2.22
2018-08-13T03:16:18.557Z,2.55
2018-08-13T03:16:52.410Z,1.95
2018-08-13T03:17:30.784Z,2.58
2018-08-13T03:18:04.457Z,2.55
2018-08-13T03:18:38.065Z,2.33
2018-08-13T03:19:11.659Z,2.87
2018-08-13T03:19:45.304Z,2.87
2018-08-13T03:20:18.858Z,2.12
2018-08-13T03:20:52.498Z,2.17
2018-08-13T03:21:26.219Z,2.95
2018-08-13T03:21:59.885Z,3.98
2018-08-13T03:22:33.461Z,4.05
2018-08-13T03:23:07.767Z,1.70
2018-08-13T03:23:42.202Z,2.55
2018-08-13T03:24:15.908Z,2.98
2018-08-13T03:24:50.147Z,3.02
2018-08-13T03:25:23.835Z,2.42
2018-08-13T03:25:57.574Z,1.77
2018-08-13T03:26:31.250Z,1.92
2018-08-13T03:27:05.000Z,2.30
2018-08-13T03:27:39.563Z,4.28
2018-08-13T03:28:13.808Z,1.98
2018-08-13T03:28:48.049Z,2.58
2018-08-13T03:29:21.781Z,1.45
2018-08-13T03:29:56.442Z,2.22
2018-08-13T03:30:30.016Z,3.05
2018-08-13T03:31:03.637Z,2.45
2018-08-13T03:31:37.342Z,4.58
2018-08-13T03:32:11.497Z,2.72
2018-08-13T03:32:45.639Z,4.28
2018-08-13T03:33:20.089Z,3.80
2018-08-13T03:33:55.191Z,3.35
2018-08-13T03:34:28.848Z,3.33
2018-08-13T03:35:02.470Z,3.50
2018-08-13T03:35:36.656Z,3.85
2018-08-13T03:36:10.768Z,2.55
2018-08-13T03:36:45.155Z,4.20
2018-08-13T03:37:18.923Z,2.00
2018-08-13T03:37:52.561Z,5.30
2018-08-13T03:38:26.629Z,3.92
2018-08-13T03:39:00.269Z,3.33
2018-08-13T03:39:33.825Z,3.92
2018-08-13T03:40:09.775Z,4.20
2018-08-13T03:40:43.526Z,2.92
2018-08-13T03:41:17.170Z,3.35
2018-08-13T03:41:50.981Z,3.33
2018-08-13T03:42:24.625Z,4.30
2018-08-13T03:42:58.735Z,4.95
2018-08-13T03:43:33.809Z,4.15
2018-08-13T03:44:08.148Z,4.33
2018-08-13T03:44:41.828Z,4.72
2018-08-13T03:45:15.525Z,4.15
2018-08-13T03:45:49.176Z,2.72
2018-08-13T03:46:22.843Z,4.60
2018-08-13T03:46:56.437Z,4.72
2018-08-13T03:47:30.057Z,6.75
2018-08-13T03:48:03.679Z,4.40
2018-08-13T03:48:37.904Z,4.40
2018-08-13T03:49:12.858Z,4.42
2018-08-13T03:49:46.407Z,5.85
2018-08-13T03:50:20.065Z,4.17
2018-08-13T03:50:55.111Z,2.98
2018-08-13T03:51:28.763Z,4.35
2018-08-13T03:52:04.686Z,4.55
2018-08-13T03:52:38.330Z,6.83
2018-08-13T03:53:13.756Z,4.35
2018-08-13T03:53:47.935Z,3.30
2018-08-13T03:54:21.471Z,2.33
2018-08-13T03:54:55.075Z,2.85
2018-08-13T03:55:28.658Z,3.50
2018-08-13T03:56:02.226Z,3.33
2018-08-13T03:56:35.856Z,2.08
2018-08-13T03:57:10.079Z,4.45
2018-08-13T03:57:45.121Z,3.40
2018-08-13T03:58:18.673Z,3.75
2018-08-13T03:58:53.255Z,5.50
2018-08-13T03:59:26.845Z,4.40
2018-08-13T04:00:00.473Z,3.35
2018-08-13T04:00:34.383Z,3.17
2018-08-13T04:01:09.050Z,4.10
2018-08-13T04:01:43.423Z,2.02
2018-08-13T04:02:17.064Z,4.35
2018-08-13T04:02:51.408Z,3.02
2018-08-13T04:03:25.059Z,2.12
2018-08-13T04:03:58.704Z,3.17
2018-08-13T04:04:32.395Z,2.95
2018-08-13T04:05:06.955Z,3.72
2018-08-13T04:05:40.541Z,3.30
2018-08-13T04:06:14.306Z,4.22
2018-08-13T04:06:47.853Z,2.67
2018-08-13T04:07:22.199Z,4.17
2018-08-13T04:07:55.918Z,4.70
2018-08-13T04:08:29.565Z,1.82
2018-08-13T04:09:03.314Z,6.45
2018-08-13T04:09:37.642Z,3.85
2018-08-13T04:10:13.054Z,2.27
2018-08-13T04:10:46.639Z,2.75
2018-08-13T04:11:21.916Z,2.47
2018-08-13T04:11:56.114Z,2.33
2018-08-13T04:12:29.668Z,3.42
2018-08-13T04:13:03.448Z,3.55
2018-08-13T04:13:37.775Z,5.53
2018-08-13T04:14:11.440Z,2.85
2018-08-13T04:14:45.564Z,4.42
2018-08-13T04:15:19.254Z,2.72
2018-08-13T04:15:52.822Z,3.15
2018-08-13T04:16:26.408Z,3.52
2018-08-13T04:17:01.620Z,4.12
2018-08-13T04:17:35.982Z,2.72
2018-08-13T04:18:09.804Z,4.30
2018-08-13T04:18:44.135Z,3.47
2018-08-13T04:19:18.364Z,2.72
2018-08-13T04:19:51.996Z,6.30
2018-08-13T04:20:26.220Z,3.55
2018-08-13T04:21:00.218Z,3.52
2018-08-13T04:21:33.899Z,4.72
2018-08-13T04:22:07.485Z,2.45
2018-08-13T04:22:41.457Z,3.22
2018-08-13T04:23:15.017Z,2.92
2018-08-13T04:23:48.739Z,2.65
2018-08-13T04:24:23.268Z,5.17
2018-08-13T04:24:57.928Z,4.47
2018-08-13T04:25:32.339Z,2.50
2018-08-13T04:26:06.036Z,2.27
2018-08-13T04:26:39.648Z,2.70
2018-08-13T04:27:13.309Z,3.08
2018-08-13T04:27:47.488Z,4.33
2018-08-13T04:28:21.124Z,4.28
2018-08-13T04:28:55.291Z,4.08
2018-08-13T04:29:28.885Z,3.27
2018-08-13T04:30:02.568Z,2.98
2018-08-13T04:30:36.209Z,3.05
2018-08-13T04:31:09.802Z,3.47
2018-08-13T04:31:44.077Z,4.80
2018-08-13T04:32:17.692Z,4.10
2018-08-13T04:32:51.429Z,2.72
2018-08-13T04:33:25.704Z,4.33
2018-08-13T04:34:00.426Z,7.45
2018-08-13T04:34:34.084Z,6.78
2018-08-13T04:35:07.737Z,4.67
2018-08-13T04:35:41.333Z,4.28
2018-08-13T04:36:14.955Z,3.52
2018-08-13T04:36:49.355Z,3.60
2018-08-13T04:37:23.796Z,2.75
2018-08-13T04:37:58.314Z,3.08
2018-08-13T04:38:31.957Z,2.85
2018-08-13T04:39:09.428Z,3.50
2018-08-13T04:39:43.775Z,2.55
2018-08-13T04:40:18.719Z,4.55
2018-08-13T04:40:52.838Z,4.87
2018-08-13T04:41:27.172Z,6.85
2018-08-13T04:42:00.816Z,4.47
2018-08-13T04:42:34.422Z,3.40
2018-08-13T04:43:08.416Z,3.85
2018-08-13T04:43:42.140Z,3.83
2018-08-13T04:44:16.516Z,5.28
2018-08-13T04:44:51.361Z,4.12
2018-08-13T04:45:25.746Z,3.37
2018-08-13T04:45:59.453Z,4.70
2018-08-13T04:46:33.125Z,4.80
2018-08-13T04:47:07.462Z,4.83
2018-08-13T04:47:45.200Z,4.00
2018-08-13T04:48:18.826Z,5.25
2018-08-13T04:48:52.938Z,5.55
2018-08-13T04:49:26.580Z,4.22
2018-08-13T04:50:00.919Z,4.20
2018-08-13T04:50:34.956Z,9.00
2018-08-13T04:51:08.956Z,3.60
2018-08-13T04:51:42.702Z,5.10
2018-08-13T04:52:16.389Z,4.55
2018-08-13T04:52:50.724Z,3.33
2018-08-13T04:53:24.452Z,4.65
2018-08-13T04:53:59.172Z,4.60
2018-08-13T04:54:33.519Z,5.35
2018-08-13T04:55:08.809Z,3.87
2018-08-13T04:55:42.970Z,5.55
2018-08-13T04:56:16.581Z,4.12
2018-08-13T04:56:50.760Z,7.35
2018-08-13T04:57:24.333Z,4.87
2018-08-13T04:57:58.590Z,4.35
2018-08-13T04:58:32.230Z,7.00
2018-08-13T04:59:05.757Z,4.30
2018-08-13T04:59:39.366Z,5.97
2018-08-13T05:00:13.400Z,4.25
2018-08-13T05:00:47.893Z,4.85
2018-08-13T05:01:21.495Z,3.17
2018-08-13T05:01:55.045Z,5.33
2018-08-13T05:02:28.891Z,4.75
2018-08-13T05:03:02.563Z,3.77
2018-08-13T05:03:36.152Z,5.83
2018-08-13T05:04:09.729Z,7.62
2018-08-13T05:04:43.356Z,3.87
2018-08-13T05:05:17.734Z,3.17
2018-08-13T05:05:51.324Z,4.85
2018-08-13T05:06:24.954Z,4.80
2018-08-13T05:06:58.548Z,6.03
2018-08-13T05:07:32.345Z,5.65
2018-08-13T05:08:06.524Z,5.97
2018-08-13T05:08:41.189Z,4.22
2018-08-13T05:09:15.762Z,5.83
2018-08-13T05:09:49.918Z,5.22
2018-08-13T05:10:24.267Z,8.05
2018-08-13T05:10:57.896Z,6.87
2018-08-13T05:11:31.434Z,6.28
2018-08-13T05:12:05.337Z,6.95
2018-08-13T05:12:39.789Z,3.58
2018-08-13T05:13:13.385Z,4.58
2018-08-13T05:13:47.062Z,4.60
2018-08-13T05:14:20.707Z,4.28
2018-08-13T05:14:54.265Z,5.17
2018-08-13T05:15:28.523Z,5.53
2018-08-13T05:16:02.200Z,9.15
2018-08-13T05:16:36.331Z,5.85
2018-08-13T05:17:10.603Z,4.42
2018-08-13T05:17:44.183Z,6.62
2018-08-13T05:18:17.872Z,4.33
2018-08-13T05:18:52.138Z,5.62
2018-08-13T05:19:25.767Z,4.70
2018-08-13T05:19:59.475Z,3.72
2018-08-13T05:20:33.836Z,5.85
2018-08-13T05:21:07.928Z,6.25
2018-08-13T05:21:41.519Z,5.55
2018-08-13T05:22:15.856Z,4.97
2018-08-13T05:22:50.072Z,5.33
2018-08-13T05:23:24.641Z,5.47
2018-08-13T05:23:58.473Z,6.95
2018-08-13T05:24:32.622Z,6.72
2018-08-13T05:25:07.442Z,5.92
2018-08-13T05:25:41.180Z,6.17
2018-08-13T05:26:15.372Z,4.70
2018-08-13T05:26:49.130Z,4.33
2018-08-13T05:27:22.695Z,5.83
2018-08-13T05:27:56.278Z,8.13
2018-08-13T05:28:29.891Z,6.47
2018-08-13T05:29:03.584Z,9.60
2018-08-13T05:29:38.152Z,7.08
2018-08-13T05:30:13.358Z,5.10
2018-08-13T05:30:47.053Z,7.30
2018-08-13T05:31:20.903Z,7.20
2018-08-13T05:31:55.045Z,4.65
2018-08-13T05:32:28.683Z,5.95
2018-08-13T05:33:03.060Z,6.03
2018-08-13T05:33:36.712Z,8.35
2018-08-13T05:34:10.420Z,5.83
2018-08-13T05:34:44.171Z,5.05
2018-08-13T05:35:17.899Z,4.92
2018-08-13T05:35:51.710Z,6.10
2018-08-13T05:36:25.378Z,6.85
2018-08-13T05:37:00.612Z,6.70
2018-08-13T05:37:34.197Z,5.53
2018-08-13T05:38:09.728Z,7.80
2018-08-13T05:38:43.991Z,7.08
2018-08-13T05:39:18.245Z,6.35
2018-08-13T05:39:53.763Z,7.15
2018-08-13T05:40:27.424Z,9.60
2018-08-13T05:41:03.768Z,5.83
2018-08-13T05:41:37.769Z,6.72
2018-08-13T05:42:13.468Z,6.90
2018-08-13T05:42:47.785Z,4.97
2018-08-13T05:43:22.325Z,9.25
2018-08-13T05:43:57.723Z,6.45
2018-08-13T05:44:31.957Z,9.05
2018-08-13T05:45:08.396Z,5.60
2018-08-13T05:45:42.055Z,6.62
2018-08-13T05:46:15.769Z,11.48
2018-08-13T05:46:49.462Z,5.70
2018-08-13T05:47:23.068Z,5.50
2018-08-13T05:47:57.885Z,6.17
2018-08-13T05:48:31.800Z,7.00
2018-08-13T05:49:05.459Z,7.58
2018-08-13T05:49:39.162Z,8.68
2018-08-13T05:50:12.849Z,7.60
2018-08-13T05:50:47.430Z,8.68
2018-08-13T05:51:21.087Z,12.58
2018-08-13T05:51:54.998Z,13.18
2018-08-13T05:52:28.746Z,16.42
2018-08-13T05:53:02.434Z,12.43
2018-08-13T05:53:36.803Z,14.10
2018-08-13T05:54:11.500Z,10.05
2018-08-13T05:54:45.129Z,8.53
2018-08-13T05:55:19.736Z,8.98
2018-08-13T05:55:54.331Z,10.60
2018-08-13T05:56:27.979Z,8.38
2018-08-13T05:57:01.600Z,9.15
2018-08-13T05:57:36.366Z,7.12
2018-08-13T05:58:11.018Z,6.72
2018-08-13T05:58:44.641Z,9.38
2018-08-13T05:59:18.286Z,9.83
2018-08-13T05:59:51.935Z,9.28
2018-08-13T06:00:25.951Z,13.72
2018-08-13T06:01:00.302Z,10.95
2018-08-13T06:01:33.944Z,11.00
2018-08-13T06:02:08.300Z,10.38
2018-08-13T06:02:43.344Z,10.20
2018-08-13T06:03:17.023Z,12.30
2018-08-13T06:03:51.417Z,10.50
2018-08-13T06:04:25.513Z,9.25
2018-08-13T06:05:00.117Z,7.78
2018-08-13T06:05:35.148Z,9.95
2018-08-13T06:06:09.595Z,8.20
2018-08-13T06:06:43.219Z,11.40
2018-08-13T06:07:16.782Z,9.55
2018-08-13T06:07:50.421Z,7.47
2018-08-13T06:08:24.078Z,10.45
2018-08-13T06:08:57.828Z,7.37
2018-08-13T06:09:32.369Z,8.13
2018-08-13T06:10:07.918Z,8.63
2018-08-13T06:10:41.611Z,7.62
2018-08-13T06:11:15.146Z,9.18
2018-08-13T06:11:50.467Z,9.75
2018-08-13T06:12:24.095Z,8.78
2018-08-13T06:12:58.116Z,12.40
2018-08-13T06:13:32.287Z,10.30
2018-08-13T06:14:05.984Z,8.50
2018-08-13T06:14:40.952Z,8.70
2018-08-13T06:15:15.223Z,7.72
2018-08-13T06:15:48.789Z,6.35
2018-08-13T06:16:22.972Z,6.65
2018-08-13T06:16:57.339Z,6.65
2018-08-13T06:17:30.891Z,7.92
2018-08-13T06:18:05.876Z,5.60
2018-08-13T06:18:39.430Z,6.53
2018-08-13T06:19:12.995Z,8.83
2018-08-13T06:19:46.588Z,7.62
2018-08-13T06:20:20.203Z,8.95
2018-08-13T06:20:55.428Z,7.87
2018-08-13T06:21:30.142Z,7.72
2018-08-13T06:22:03.811Z,7.78
2018-08-13T06:22:37.746Z,11.10
2018-08-13T06:23:11.476Z,7.55
2018-08-13T06:23:45.107Z,6.85
2018-08-13T06:24:18.932Z,6.92
2018-08-13T06:24:52.501Z,6.67
2018-08-13T06:25:26.083Z,7.22
2018-08-13T06:26:00.969Z,8.98
2018-08-13T06:26:35.017Z,6.03
2018-08-13T06:27:09.377Z,8.38
2018-08-13T06:27:43.290Z,9.30
2018-08-13T06:28:17.145Z,6.42
2018-08-13T06:28:50.777Z,7.37
2018-08-13T06:29:24.307Z,7.17
2018-08-13T06:29:58.705Z,9.18
2018-08-13T06:30:32.396Z,9.10
2018-08-13T06:31:06.052Z,7.53
2018-08-13T06:31:39.672Z,7.70
2018-08-13T06:32:13.234Z,9.23
2018-08-13T06:32:46.832Z,6.22
2018-08-13T06:33:20.460Z,9.70
2018-08-13T06:33:54.442Z,9.85
2018-08-13T06:34:28.027Z,10.25
2018-08-13T06:35:03.051Z,8.23
2018-08-13T06:35:37.177Z,7.00
2018-08-13T06:36:11.053Z,9.25
2018-08-13T06:36:44.618Z,7.67
2018-08-13T06:37:19.019Z,10.03
2018-08-13T06:37:54.470Z,10.85
2018-08-13T06:38:28.884Z,9.15
2018-08-13T06:39:02.620Z,8.30
2018-08-13T06:39:36.220Z,11.80
2018-08-13T06:40:10.571Z,7.00
2018-08-13T06:40:44.176Z,8.63
2018-08-13T06:41:18.506Z,10.82
2018-08-13T06:41:52.643Z,11.25
2018-08-13T06:42:27.582Z,9.60
2018-08-13T06:43:02.040Z,10.90
2018-08-13T06:43:36.333Z,8.13
2018-08-13T06:44:09.988Z,8.35
2018-08-13T06:44:43.605Z,9.08
2018-08-13T06:45:17.353Z,8.93
2018-08-13T06:45:51.016Z,10.00
2018-08-13T06:46:24.608Z,7.22
2018-08-13T06:46:58.858Z,7.60
2018-08-13T06:47:32.452Z,5.92
2018-08-13T06:48:06.357Z,8.40
2018-08-13T06:48:39.951Z,7.45
2018-08-13T06:49:14.286Z,9.48
2018-08-13T06:49:48.058Z,8.80
2018-08-13T06:50:22.311Z,6.60
2018-08-13T06:50:56.544Z,5.67
2018-08-13T06:51:30.769Z,7.97
2018-08-13T06:52:04.351Z,6.42
2018-08-13T06:52:38.232Z,6.53
2018-08-13T06:53:11.918Z,8.23
2018-08-13T06:53:46.428Z,5.95
2018-08-13T06:54:21.486Z,5.90
2018-08-13T06:54:57.123Z,7.80
2018-08-13T06:55:31.088Z,6.67
2018-08-13T06:56:04.798Z,7.97
2018-08-13T06:56:38.591Z,10.70
2018-08-13T06:57:12.260Z,6.03
2018-08-13T06:57:45.931Z,6.55
2018-08-13T06:58:20.819Z,7.15
2018-08-13T06:58:55.191Z,6.78
2018-08-13T06:59:28.792Z,6.22
2018-08-13T07:00:02.457Z,6.80
2018-08-13T07:00:36.119Z,6.78
2018-08-13T07:01:09.892Z,6.85
2018-08-13T07:01:44.675Z,6.12
2018-08-13T07:02:18.482Z,7.95
2018-08-13T07:02:52.152Z,8.55
2018-08-13T07:03:25.773Z,8.08
2018-08-13T07:04:00.539Z,10.30
2018-08-13T07:04:34.064Z,5.60
2018-08-13T07:05:09.186Z,6.15
2018-08-13T07:05:44.087Z,8.85
2018-08-13T07:06:18.875Z,6.62
2018-08-13T07:06:52.471Z,7.00
2018-08-13T07:07:26.934Z,7.20
2018-08-13T07:08:01.585Z,6.97
2018-08-13T07:08:36.145Z,5.72
2018-08-13T07:09:11.667Z,6.00
2018-08-13T07:09:45.877Z,8.10
2018-08-13T07:10:20.288Z,8.00
2018-08-13T07:10:53.949Z,5.87
2018-08-13T07:11:27.591Z,6.87
2018-08-13T07:12:02.449Z,5.65
2018-08-13T07:12:37.233Z,7.03
2018-08-13T07:13:10.827Z,7.97
2018-08-13T07:13:44.541Z,9.03
2018-08-13T07:14:19.880Z,5.47
2018-08-13T07:14:54.182Z,8.73
2018-08-13T07:15:27.860Z,6.05
2018-08-13T07:16:01.919Z,5.60
2018-08-13T07:16:36.077Z,6.03
2018-08-13T07:17:09.718Z,6.85
2018-08-13T07:17:43.390Z,5.28
2018-08-13T07:18:16.990Z,7.70
2018-08-13T07:18:50.712Z,7.05
2018-08-13T07:19:24.459Z,8.58
2018-08-13T07:19:58.004Z,6.92
2018-08-13T07:20:31.609Z,5.83
2018-08-13T07:21:06.590Z,5.53
2018-08-13T07:21:40.140Z,4.97
2018-08-13T07:22:13.878Z,4.97
2018-08-13T07:22:47.391Z,6.70
2018-08-13T07:23:21.096Z,6.30
2018-08-13T07:23:54.774Z,7.53
2018-08-13T07:24:29.147Z,6.80
2018-08-13T07:25:03.469Z,8.60
2018-08-13T07:25:37.091Z,8.00
2018-08-13T07:26:10.733Z,7.28
2018-08-13T07:26:44.387Z,8.98
2018-08-13T07:27:18.826Z,5.15
2018-08-13T07:27:52.447Z,4.72
2018-08-13T07:28:27.075Z,6.08
2018-08-13T07:29:00.722Z,6.85
2018-08-13T07:29:34.276Z,7.55
2018-08-13T07:30:10.262Z,5.45
2018-08-13T07:30:43.908Z,7.75
2018-08-13T07:31:18.091Z,7.83
2018-08-13T07:31:51.703Z,5.55
2018-08-13T07:32:25.283Z,7.45
2018-08-13T07:32:59.805Z,5.97